sensor_id;sensor_type;location;lat;lon;timestamp;P1;durP1;ratioP1;P2;durP2;ratioP2
68942;SDS011;60852;52.190;4.422;2023-11-21T00:02:17;3.84;;;3.38;;
68942;SDS011;60852;52.190;4.422;2023-11-21T00:04:43;3.75;;;3.26;;
68942;SDS011;60852;52.190;4.422;2023-11-21T00:07:08;4.10;;;3.50;;
68942;SDS011;60852;52.190;4.422;2023-11-21T00:09:34;4.14;;;3.51;;
68942;SDS011;60852;52.190;4.422;2023-11-21T00:12:00;4.21;;;3.65;;
68942;SDS011;60852;52.190;4.422;2023-11-21T00:14:25;3.70;;;3.27;;
68942;SDS011;60852;52.190;4.422;2023-11-21T00:16:51;3.27;;;2.89;;
68942;SDS011;60852;52.190;4.422;2023-11-21T00:19:16;3.33;;;2.83;;
68942;SDS011;60852;52.190;4.422;2023-11-21T00:21:42;3.32;;;2.79;;
68942;SDS011;60852;52.190;4.422;2023-11-21T00:24:11;3.74;;;3.07;;
68942;SDS011;60852;52.190;4.422;2023-11-21T00:26:41;3.81;;;3.16;;
68942;SDS011;60852;52.190;4.422;2023-11-21T00:29:07;3.89;;;3.30;;
68942;SDS011;60852;52.190;4.422;2023-11-21T00:31:33;2.87;;;2.44;;
68942;SDS011;60852;52.190;4.422;2023-11-21T00:34:02;2.52;;;2.14;;
68942;SDS011;60852;52.190;4.422;2023-11-21T00:36:30;2.69;;;2.27;;
68942;SDS011;60852;52.190;4.422;2023-11-21T00:38:57;2.71;;;2.30;;
68942;SDS011;60852;52.190;4.422;2023-11-21T00:41:23;2.66;;;2.26;;
68942;SDS011;60852;52.190;4.422;2023-11-21T00:43:48;3.13;;;2.58;;
68942;SDS011;60852;52.190;4.422;2023-11-21T00:46:14;2.97;;;2.39;;
68942;SDS011;60852;52.190;4.422;2023-11-21T00:48:39;3.30;;;2.75;;
68942;SDS011;60852;52.190;4.422;2023-11-21T00:53:40;2.69;;;2.29;;
68942;SDS011;60852;52.190;4.422;2023-11-21T00:56:05;2.64;;;2.30;;
68942;SDS011;60852;52.190;4.422;2023-11-21T00:58:32;2.74;;;2.34;;
68942;SDS011;60852;52.190;4.422;2023-11-21T01:00:57;2.72;;;2.32;;
68942;SDS011;60852;52.190;4.422;2023-11-21T01:03:23;2.57;;;2.19;;
68942;SDS011;60852;52.190;4.422;2023-11-21T01:05:49;2.32;;;1.98;;
68942;SDS011;60852;52.190;4.422;2023-11-21T01:08:15;2.24;;;1.93;;
68942;SDS011;60852;52.190;4.422;2023-11-21T01:10:40;2.17;;;1.88;;
68942;SDS011;60852;52.190;4.422;2023-11-21T01:13:06;2.32;;;2.04;;
68942;SDS011;60852;52.190;4.422;2023-11-21T01:15:32;2.47;;;2.16;;
68942;SDS011;60852;52.190;4.422;2023-11-21T01:17:59;2.51;;;2.20;;
68942;SDS011;60852;52.190;4.422;2023-11-21T01:20:24;2.51;;;2.19;;
68942;SDS011;60852;52.190;4.422;2023-11-21T01:22:50;2.77;;;2.38;;
68942;SDS011;60852;52.190;4.422;2023-11-21T01:25:15;2.83;;;2.40;;
68942;SDS011;60852;52.190;4.422;2023-11-21T01:27:41;2.99;;;2.55;;
68942;SDS011;60852;52.190;4.422;2023-11-21T01:30:07;2.92;;;2.53;;
68942;SDS011;60852;52.190;4.422;2023-11-21T01:32:35;2.82;;;2.50;;
68942;SDS011;60852;52.190;4.422;2023-11-21T01:35:01;2.71;;;2.47;;
68942;SDS011;60852;52.190;4.422;2023-11-21T01:37:27;2.71;;;2.51;;
68942;SDS011;60852;52.190;4.422;2023-11-21T01:39:53;2.81;;;2.63;;
68942;SDS011;60852;52.190;4.422;2023-11-21T01:42:20;2.68;;;2.50;;
68942;SDS011;60852;52.190;4.422;2023-11-21T01:44:46;2.99;;;2.83;;
68942;SDS011;60852;52.190;4.422;2023-11-21T01:47:11;3.03;;;2.91;;
68942;SDS011;60852;52.190;4.422;2023-11-21T01:49:39;2.88;;;2.78;;
68942;SDS011;60852;52.190;4.422;2023-11-21T01:52:04;3.08;;;2.92;;
68942;SDS011;60852;52.190;4.422;2023-11-21T01:54:31;2.92;;;2.77;;
68942;SDS011;60852;52.190;4.422;2023-11-21T01:56:58;2.73;;;2.53;;
68942;SDS011;60852;52.190;4.422;2023-11-21T01:59:29;2.53;;;2.32;;
68942;SDS011;60852;52.190;4.422;2023-11-21T02:02:00;2.27;;;2.09;;
68942;SDS011;60852;52.190;4.422;2023-11-21T02:04:25;2.34;;;2.18;;
68942;SDS011;60852;52.190;4.422;2023-11-21T02:06:51;2.36;;;2.23;;
68942;SDS011;60852;52.190;4.422;2023-11-21T02:09:16;2.17;;;2.04;;
68942;SDS011;60852;52.190;4.422;2023-11-21T02:11:43;2.39;;;2.27;;
68942;SDS011;60852;52.190;4.422;2023-11-21T02:14:09;2.12;;;2.03;;
68942;SDS011;60852;52.190;4.422;2023-11-21T02:16:35;2.29;;;2.19;;
68942;SDS011;60852;52.190;4.422;2023-11-21T02:19:02;1.84;;;1.73;;
68942;SDS011;60852;52.190;4.422;2023-11-21T02:21:34;1.93;;;1.81;;
68942;SDS011;60852;52.190;4.422;2023-11-21T02:24:01;1.87;;;1.75;;
68942;SDS011;60852;52.190;4.422;2023-11-21T02:26:27;1.82;;;1.70;;
68942;SDS011;60852;52.190;4.422;2023-11-21T02:28:52;1.70;;;1.60;;
68942;SDS011;60852;52.190;4.422;2023-11-21T02:31:18;1.66;;;1.58;;
68942;SDS011;60852;52.190;4.422;2023-11-21T02:33:44;1.31;;;1.24;;
68942;SDS011;60852;52.190;4.422;2023-11-21T02:36:09;1.21;;;1.16;;
68942;SDS011;60852;52.190;4.422;2023-11-21T02:38:35;1.41;;;1.37;;
68942;SDS011;60852;52.190;4.422;2023-11-21T02:41:00;1.12;;;1.08;;
68942;SDS011;60852;52.190;4.422;2023-11-21T02:43:26;1.24;;;1.18;;
68942;SDS011;60852;52.190;4.422;2023-11-21T02:45:51;1.11;;;1.06;;
68942;SDS011;60852;52.190;4.422;2023-11-21T02:48:17;1.22;;;1.18;;
68942;SDS011;60852;52.190;4.422;2023-11-21T02:50:42;1.09;;;1.06;;
68942;SDS011;60852;52.190;4.422;2023-11-21T02:53:08;1.23;;;1.20;;
68942;SDS011;60852;52.190;4.422;2023-11-21T02:55:36;1.16;;;1.12;;
68942;SDS011;60852;52.190;4.422;2023-11-21T02:58:02;1.35;;;1.30;;
68942;SDS011;60852;52.190;4.422;2023-11-21T03:00:31;1.30;;;1.26;;
68942;SDS011;60852;52.190;4.422;2023-11-21T03:02:56;1.11;;;1.08;;
68942;SDS011;60852;52.190;4.422;2023-11-21T03:05:22;1.34;;;1.32;;
68942;SDS011;60852;52.190;4.422;2023-11-21T03:07:47;1.34;;;1.34;;
68942;SDS011;60852;52.190;4.422;2023-11-21T03:10:13;1.37;;;1.37;;
68942;SDS011;60852;52.190;4.422;2023-11-21T03:12:39;1.29;;;1.29;;
68942;SDS011;60852;52.190;4.422;2023-11-21T03:15:05;1.50;;;1.50;;
68942;SDS011;60852;52.190;4.422;2023-11-21T03:17:31;1.48;;;1.48;;
68942;SDS011;60852;52.190;4.422;2023-11-21T03:19:59;1.46;;;1.46;;
68942;SDS011;60852;52.190;4.422;2023-11-21T03:22:24;1.62;;;1.62;;
68942;SDS011;60852;52.190;4.422;2023-11-21T03:24:50;1.58;;;1.58;;
68942;SDS011;60852;52.190;4.422;2023-11-21T03:27:15;1.32;;;1.32;;
68942;SDS011;60852;52.190;4.422;2023-11-21T03:29:41;1.59;;;1.59;;
68942;SDS011;60852;52.190;4.422;2023-11-21T03:32:06;1.55;;;1.55;;
68942;SDS011;60852;52.190;4.422;2023-11-21T03:34:32;1.38;;;1.38;;
68942;SDS011;60852;52.190;4.422;2023-11-21T03:36:57;1.42;;;1.42;;
68942;SDS011;60852;52.190;4.422;2023-11-21T03:39:23;1.91;;;1.90;;
68942;SDS011;60852;52.190;4.422;2023-11-21T03:41:50;1.73;;;1.73;;
68942;SDS011;60852;52.190;4.422;2023-11-21T03:44:17;1.89;;;1.88;;
68942;SDS011;60852;52.190;4.422;2023-11-21T03:46:43;1.83;;;1.82;;
68942;SDS011;60852;52.190;4.422;2023-11-21T03:49:09;1.91;;;1.89;;
68942;SDS011;60852;52.190;4.422;2023-11-21T03:51:36;2.13;;;2.12;;
68942;SDS011;60852;52.190;4.422;2023-11-21T03:54:02;2.06;;;2.05;;
68942;SDS011;60852;52.190;4.422;2023-11-21T03:56:28;1.88;;;1.88;;
68942;SDS011;60852;52.190;4.422;2023-11-21T03:58:53;1.53;;;1.53;;
68942;SDS011;60852;52.190;4.422;2023-11-21T04:01:20;1.47;;;1.47;;
68942;SDS011;60852;52.190;4.422;2023-11-21T04:03:47;1.32;;;1.32;;
68942;SDS011;60852;52.190;4.422;2023-11-21T04:06:13;0.89;;;0.89;;
68942;SDS011;60852;52.190;4.422;2023-11-21T04:08:38;0.89;;;0.88;;
68942;SDS011;60852;52.190;4.422;2023-11-21T04:11:03;0.99;;;0.98;;
68942;SDS011;60852;52.190;4.422;2023-11-21T04:13:29;0.98;;;0.97;;
68942;SDS011;60852;52.190;4.422;2023-11-21T04:15:55;0.81;;;0.79;;
68942;SDS011;60852;52.190;4.422;2023-11-21T04:18:21;0.79;;;0.78;;
68942;SDS011;60852;52.190;4.422;2023-11-21T04:20:48;0.91;;;0.89;;
68942;SDS011;60852;52.190;4.422;2023-11-21T04:23:13;0.96;;;0.94;;
68942;SDS011;60852;52.190;4.422;2023-11-21T04:25:40;0.98;;;0.96;;
68942;SDS011;60852;52.190;4.422;2023-11-21T04:28:05;0.95;;;0.93;;
68942;SDS011;60852;52.190;4.422;2023-11-21T04:30:31;0.85;;;0.83;;
68942;SDS011;60852;52.190;4.422;2023-11-21T04:32:57;0.88;;;0.86;;
68942;SDS011;60852;52.190;4.422;2023-11-21T04:35:23;0.97;;;0.95;;
68942;SDS011;60852;52.190;4.422;2023-11-21T04:37:49;1.19;;;1.16;;
68942;SDS011;60852;52.190;4.422;2023-11-21T04:40:16;1.18;;;1.15;;
68942;SDS011;60852;52.190;4.422;2023-11-21T04:42:41;1.13;;;1.11;;
68942;SDS011;60852;52.190;4.422;2023-11-21T04:45:07;1.37;;;1.35;;
68942;SDS011;60852;52.190;4.422;2023-11-21T04:47:34;1.59;;;1.56;;
68942;SDS011;60852;52.190;4.422;2023-11-21T04:50:01;1.42;;;1.40;;
68942;SDS011;60852;52.190;4.422;2023-11-21T04:52:28;1.61;;;1.60;;
68942;SDS011;60852;52.190;4.422;2023-11-21T04:54:54;1.64;;;1.63;;
68942;SDS011;60852;52.190;4.422;2023-11-21T04:57:20;1.61;;;1.59;;
68942;SDS011;60852;52.190;4.422;2023-11-21T04:59:47;1.37;;;1.35;;
68942;SDS011;60852;52.190;4.422;2023-11-21T05:02:13;1.38;;;1.37;;
68942;SDS011;60852;52.190;4.422;2023-11-21T05:04:39;1.98;;;1.97;;
68942;SDS011;60852;52.190;4.422;2023-11-21T05:07:04;1.95;;;1.92;;
68942;SDS011;60852;52.190;4.422;2023-11-21T05:09:30;1.59;;;1.56;;
68942;SDS011;60852;52.190;4.422;2023-11-21T05:11:57;1.76;;;1.73;;
68942;SDS011;60852;52.190;4.422;2023-11-21T05:14:23;1.50;;;1.46;;
68942;SDS011;60852;52.190;4.422;2023-11-21T05:16:48;1.45;;;1.41;;
68942;SDS011;60852;52.190;4.422;2023-11-21T05:19:16;1.95;;;1.90;;
68942;SDS011;60852;52.190;4.422;2023-11-21T05:21:42;1.80;;;1.75;;
68942;SDS011;60852;52.190;4.422;2023-11-21T05:24:08;1.63;;;1.60;;
68942;SDS011;60852;52.190;4.422;2023-11-21T05:26:34;1.72;;;1.69;;
68942;SDS011;60852;52.190;4.422;2023-11-21T05:29:00;1.99;;;1.94;;
68942;SDS011;60852;52.190;4.422;2023-11-21T05:31:25;1.78;;;1.73;;
68942;SDS011;60852;52.190;4.422;2023-11-21T05:33:52;1.86;;;1.77;;
68942;SDS011;60852;52.190;4.422;2023-11-21T05:36:18;1.95;;;1.84;;
68942;SDS011;60852;52.190;4.422;2023-11-21T05:38:43;1.63;;;1.52;;
68942;SDS011;60852;52.190;4.422;2023-11-21T05:41:09;1.82;;;1.68;;
68942;SDS011;60852;52.190;4.422;2023-11-21T05:43:38;1.92;;;1.74;;
68942;SDS011;60852;52.190;4.422;2023-11-21T05:46:04;1.97;;;1.80;;
68942;SDS011;60852;52.190;4.422;2023-11-21T05:48:32;1.71;;;1.56;;
68942;SDS011;60852;52.190;4.422;2023-11-21T05:50:57;2.01;;;1.79;;
68942;SDS011;60852;52.190;4.422;2023-11-21T05:53:24;2.28;;;2.00;;
68942;SDS011;60852;52.190;4.422;2023-11-21T05:55:49;2.02;;;1.74;;
68942;SDS011;60852;52.190;4.422;2023-11-21T05:58:15;2.06;;;1.75;;
68942;SDS011;60852;52.190;4.422;2023-11-21T06:00:40;1.85;;;1.58;;
68942;SDS011;60852;52.190;4.422;2023-11-21T06:03:06;1.55;;;1.34;;
68942;SDS011;60852;52.190;4.422;2023-11-21T06:05:33;1.73;;;1.50;;
68942;SDS011;60852;52.190;4.422;2023-11-21T06:07:59;1.96;;;1.70;;
68942;SDS011;60852;52.190;4.422;2023-11-21T06:10:26;2.88;;;2.42;;
68942;SDS011;60852;52.190;4.422;2023-11-21T06:12:53;2.57;;;2.16;;
68942;SDS011;60852;52.190;4.422;2023-11-21T06:15:18;2.91;;;2.43;;
68942;SDS011;60852;52.190;4.422;2023-11-21T06:17:46;3.53;;;2.97;;
68942;SDS011;60852;52.190;4.422;2023-11-21T06:20:14;3.82;;;3.19;;
68942;SDS011;60852;52.190;4.422;2023-11-21T06:22:44;4.03;;;3.36;;
68942;SDS011;60852;52.190;4.422;2023-11-21T06:25:12;3.93;;;3.38;;
68942;SDS011;60852;52.190;4.422;2023-11-21T06:27:42;3.94;;;3.46;;
68942;SDS011;60852;52.190;4.422;2023-11-21T06:30:10;4.27;;;3.80;;
68942;SDS011;60852;52.190;4.422;2023-11-21T06:32:37;4.14;;;3.80;;
68942;SDS011;60852;52.190;4.422;2023-11-21T06:35:03;4.29;;;3.96;;
68942;SDS011;60852;52.190;4.422;2023-11-21T06:37:32;4.25;;;3.85;;
68942;SDS011;60852;52.190;4.422;2023-11-21T06:39:58;4.48;;;4.01;;
68942;SDS011;60852;52.190;4.422;2023-11-21T06:42:25;4.60;;;4.15;;
68942;SDS011;60852;52.190;4.422;2023-11-21T06:44:51;4.66;;;4.27;;
68942;SDS011;60852;52.190;4.422;2023-11-21T06:47:18;4.98;;;4.43;;
68942;SDS011;60852;52.190;4.422;2023-11-21T06:49:47;4.99;;;4.47;;
68942;SDS011;60852;52.190;4.422;2023-11-21T06:52:15;4.86;;;4.35;;
68942;SDS011;60852;52.190;4.422;2023-11-21T06:54:40;4.79;;;4.32;;
68942;SDS011;60852;52.190;4.422;2023-11-21T06:57:06;4.94;;;4.41;;
68942;SDS011;60852;52.190;4.422;2023-11-21T06:59:32;4.84;;;4.30;;
68942;SDS011;60852;52.190;4.422;2023-11-21T07:01:58;4.28;;;3.85;;
68942;SDS011;60852;52.190;4.422;2023-11-21T07:04:23;4.07;;;3.67;;
68942;SDS011;60852;52.190;4.422;2023-11-21T07:06:51;4.52;;;4.01;;
68942;SDS011;60852;52.190;4.422;2023-11-21T07:09:19;4.58;;;4.03;;
68942;SDS011;60852;52.190;4.422;2023-11-21T07:11:50;4.77;;;4.20;;
68942;SDS011;60852;52.190;4.422;2023-11-21T07:14:15;5.16;;;4.58;;
68942;SDS011;60852;52.190;4.422;2023-11-21T07:16:42;4.63;;;4.22;;
68942;SDS011;60852;52.190;4.422;2023-11-21T07:19:08;4.34;;;3.90;;
68942;SDS011;60852;52.190;4.422;2023-11-21T07:21:34;3.39;;;3.10;;
68942;SDS011;60852;52.190;4.422;2023-11-21T07:24:01;3.31;;;3.05;;
68942;SDS011;60852;52.190;4.422;2023-11-21T07:26:30;3.40;;;3.04;;
68942;SDS011;60852;52.190;4.422;2023-11-21T07:28:55;2.89;;;2.61;;
68942;SDS011;60852;52.190;4.422;2023-11-21T07:31:24;3.38;;;3.00;;
68942;SDS011;60852;52.190;4.422;2023-11-21T07:33:50;2.99;;;2.69;;
68942;SDS011;60852;52.190;4.422;2023-11-21T07:36:16;3.05;;;2.73;;
68942;SDS011;60852;52.190;4.422;2023-11-21T07:38:48;3.55;;;3.11;;
68942;SDS011;60852;52.190;4.422;2023-11-21T07:41:15;3.38;;;2.93;;
68942;SDS011;60852;52.190;4.422;2023-11-21T07:43:41;3.53;;;3.16;;
68942;SDS011;60852;52.190;4.422;2023-11-21T07:46:07;3.64;;;3.27;;
68942;SDS011;60852;52.190;4.422;2023-11-21T07:48:35;3.96;;;3.47;;
68942;SDS011;60852;52.190;4.422;2023-11-21T07:51:02;4.17;;;3.71;;
68942;SDS011;60852;52.190;4.422;2023-11-21T07:53:30;4.13;;;3.67;;
68942;SDS011;60852;52.190;4.422;2023-11-21T07:55:56;3.98;;;3.54;;
68942;SDS011;60852;52.190;4.422;2023-11-21T07:58:23;3.73;;;3.40;;
68942;SDS011;60852;52.190;4.422;2023-11-21T08:00:49;3.76;;;3.40;;
68942;SDS011;60852;52.190;4.422;2023-11-21T08:03:14;4.34;;;3.88;;
68942;SDS011;60852;52.190;4.422;2023-11-21T08:05:41;4.14;;;3.72;;
68942;SDS011;60852;52.190;4.422;2023-11-21T08:08:06;4.35;;;3.90;;
68942;SDS011;60852;52.190;4.422;2023-11-21T08:10:32;4.69;;;4.20;;
68942;SDS011;60852;52.190;4.422;2023-11-21T08:12:58;4.57;;;4.11;;
68942;SDS011;60852;52.190;4.422;2023-11-21T08:15:24;4.42;;;3.90;;
68942;SDS011;60852;52.190;4.422;2023-11-21T08:17:50;4.41;;;3.96;;
68942;SDS011;60852;52.190;4.422;2023-11-21T08:20:15;4.33;;;3.86;;
68942;SDS011;60852;52.190;4.422;2023-11-21T08:22:44;4.19;;;3.74;;
68942;SDS011;60852;52.190;4.422;2023-11-21T08:25:10;4.41;;;3.94;;
68942;SDS011;60852;52.190;4.422;2023-11-21T08:27:35;4.67;;;4.10;;
68942;SDS011;60852;52.190;4.422;2023-11-21T08:30:04;4.82;;;4.35;;
68942;SDS011;60852;52.190;4.422;2023-11-21T08:32:30;4.12;;;3.84;;
68942;SDS011;60852;52.190;4.422;2023-11-21T08:34:57;3.84;;;3.62;;
68942;SDS011;60852;52.190;4.422;2023-11-21T08:37:23;3.97;;;3.77;;
68942;SDS011;60852;52.190;4.422;2023-11-21T08:39:49;3.34;;;3.21;;
68942;SDS011;60852;52.190;4.422;2023-11-21T08:42:14;3.81;;;3.66;;
68942;SDS011;60852;52.190;4.422;2023-11-21T08:44:40;3.68;;;3.51;;
68942;SDS011;60852;52.190;4.422;2023-11-21T08:47:06;3.76;;;3.66;;
68942;SDS011;60852;52.190;4.422;2023-11-21T08:49:32;3.25;;;3.17;;
68942;SDS011;60852;52.190;4.422;2023-11-21T08:51:58;3.33;;;3.28;;
68942;SDS011;60852;52.190;4.422;2023-11-21T08:54:26;3.71;;;3.65;;
68942;SDS011;60852;52.190;4.422;2023-11-21T08:56:52;3.56;;;3.47;;
68942;SDS011;60852;52.190;4.422;2023-11-21T08:59:18;3.32;;;3.22;;
68942;SDS011;60852;52.190;4.422;2023-11-21T09:01:45;3.20;;;3.10;;
68942;SDS011;60852;52.190;4.422;2023-11-21T09:04:10;3.78;;;3.67;;
68942;SDS011;60852;52.190;4.422;2023-11-21T09:06:36;3.91;;;3.85;;
68942;SDS011;60852;52.190;4.422;2023-11-21T09:09:01;4.13;;;4.06;;
68942;SDS011;60852;52.190;4.422;2023-11-21T09:11:27;3.81;;;3.76;;
68942;SDS011;60852;52.190;4.422;2023-11-21T09:13:58;4.06;;;3.98;;
68942;SDS011;60852;52.190;4.422;2023-11-21T09:16:24;3.94;;;3.89;;
68942;SDS011;60852;52.190;4.422;2023-11-21T09:18:49;4.12;;;4.08;;
68942;SDS011;60852;52.190;4.422;2023-11-21T09:21:15;4.00;;;3.99;;
68942;SDS011;60852;52.190;4.422;2023-11-21T09:23:40;4.32;;;4.32;;
68942;SDS011;60852;52.190;4.422;2023-11-21T09:26:06;4.34;;;4.34;;
68942;SDS011;60852;52.190;4.422;2023-11-21T09:28:31;4.54;;;4.54;;
68942;SDS011;60852;52.190;4.422;2023-11-21T09:30:57;4.23;;;4.23;;
68942;SDS011;60852;52.190;4.422;2023-11-21T09:33:22;4.28;;;4.27;;
68942;SDS011;60852;52.190;4.422;2023-11-21T09:35:50;4.24;;;4.24;;
68942;SDS011;60852;52.190;4.422;2023-11-21T09:38:16;4.29;;;4.29;;
68942;SDS011;60852;52.190;4.422;2023-11-21T09:40:41;4.18;;;4.17;;
68942;SDS011;60852;52.190;4.422;2023-11-21T09:43:14;4.00;;;3.98;;
68942;SDS011;60852;52.190;4.422;2023-11-21T09:45:54;4.17;;;4.12;;
68942;SDS011;60852;52.190;4.422;2023-11-21T09:48:27;3.83;;;3.81;;
68942;SDS011;60852;52.190;4.422;2023-11-21T09:50:55;3.66;;;3.62;;
68942;SDS011;60852;52.190;4.422;2023-11-21T09:53:24;4.11;;;4.03;;
68942;SDS011;60852;52.190;4.422;2023-11-21T09:55:55;3.81;;;3.74;;
68942;SDS011;60852;52.190;4.422;2023-11-21T09:58:21;3.84;;;3.78;;
68942;SDS011;60852;52.190;4.422;2023-11-21T10:00:49;3.81;;;3.75;;
68942;SDS011;60852;52.190;4.422;2023-11-21T10:03:22;3.83;;;3.75;;
68942;SDS011;60852;52.190;4.422;2023-11-21T10:05:48;3.87;;;3.79;;
68942;SDS011;60852;52.190;4.422;2023-11-21T10:08:16;3.48;;;3.41;;
68942;SDS011;60852;52.190;4.422;2023-11-21T10:10:45;3.91;;;3.84;;
68942;SDS011;60852;52.190;4.422;2023-11-21T10:13:13;4.04;;;3.99;;
68942;SDS011;60852;52.190;4.422;2023-11-21T10:15:42;3.78;;;3.72;;
68942;SDS011;60852;52.190;4.422;2023-11-21T10:18:13;3.83;;;3.76;;
68942;SDS011;60852;52.190;4.422;2023-11-21T10:20:40;3.99;;;3.93;;
68942;SDS011;60852;52.190;4.422;2023-11-21T10:23:06;4.09;;;4.03;;
68942;SDS011;60852;52.190;4.422;2023-11-21T10:25:36;4.56;;;4.45;;
68942;SDS011;60852;52.190;4.422;2023-11-21T10:28:02;4.68;;;4.55;;
68942;SDS011;60852;52.190;4.422;2023-11-21T10:30:36;4.78;;;4.69;;
68942;SDS011;60852;52.190;4.422;2023-11-21T10:33:03;4.46;;;4.39;;
68942;SDS011;60852;52.190;4.422;2023-11-21T10:38:05;4.41;;;4.33;;
68942;SDS011;60852;52.190;4.422;2023-11-21T10:40:30;4.48;;;4.39;;
68942;SDS011;60852;52.190;4.422;2023-11-21T10:43:05;4.09;;;4.00;;
68942;SDS011;60852;52.190;4.422;2023-11-21T10:45:32;4.22;;;4.12;;
68942;SDS011;60852;52.190;4.422;2023-11-21T10:47:57;4.37;;;4.30;;
68942;SDS011;60852;52.190;4.422;2023-11-21T10:50:23;4.73;;;4.66;;
68942;SDS011;60852;52.190;4.422;2023-11-21T10:52:48;4.57;;;4.57;;
68942;SDS011;60852;52.190;4.422;2023-11-21T10:55:17;5.00;;;4.99;;
68942;SDS011;60852;52.190;4.422;2023-11-21T10:57:49;5.25;;;5.22;;
68942;SDS011;60852;52.190;4.422;2023-11-21T11:00:18;5.49;;;5.41;;
68942;SDS011;60852;52.190;4.422;2023-11-21T11:02:51;5.66;;;5.53;;
68942;SDS011;60852;52.190;4.422;2023-11-21T11:05:19;5.75;;;5.69;;
68942;SDS011;60852;52.190;4.422;2023-11-21T11:07:47;5.21;;;5.17;;
68942;SDS011;60852;52.190;4.422;2023-11-21T11:10:19;5.09;;;5.04;;
68942;SDS011;60852;52.190;4.422;2023-11-21T11:12:47;5.45;;;5.40;;
68942;SDS011;60852;52.190;4.422;2023-11-21T11:15:14;5.47;;;5.44;;
68942;SDS011;60852;52.190;4.422;2023-11-21T11:17:41;5.38;;;5.35;;
68942;SDS011;60852;52.190;4.422;2023-11-21T11:20:10;5.55;;;5.48;;
68942;SDS011;60852;52.190;4.422;2023-11-21T11:22:50;5.96;;;5.84;;
68942;SDS011;60852;52.190;4.422;2023-11-21T11:25:46;6.68;;;6.57;;
68942;SDS011;60852;52.190;4.422;2023-11-21T11:28:27;6.70;;;6.60;;
68942;SDS011;60852;52.190;4.422;2023-11-21T11:31:14;6.84;;;6.72;;
68942;SDS011;60852;52.190;4.422;2023-11-21T11:37:08;8.24;;;8.15;;
68942;SDS011;60852;52.190;4.422;2023-11-21T11:39:35;8.26;;;8.21;;
68942;SDS011;60852;52.190;4.422;2023-11-21T11:42:13;8.99;;;8.83;;
68942;SDS011;60852;52.190;4.422;2023-11-21T11:47:14;8.79;;;8.59;;
68942;SDS011;60852;52.190;4.422;2023-11-21T11:52:48;8.71;;;8.53;;
68942;SDS011;60852;52.190;4.422;2023-11-21T11:55:20;8.40;;;8.21;;
68942;SDS011;60852;52.190;4.422;2023-11-21T11:57:56;8.78;;;8.67;;
68942;SDS011;60852;52.190;4.422;2023-11-21T12:00:33;9.42;;;9.30;;
68942;SDS011;60852;52.190;4.422;2023-11-21T12:03:03;8.87;;;8.77;;
68942;SDS011;60852;52.190;4.422;2023-11-21T12:05:33;9.89;;;9.58;;
68942;SDS011;60852;52.190;4.422;2023-11-21T12:08:10;10.12;;;10.01;;
68942;SDS011;60852;52.190;4.422;2023-11-21T12:10:38;9.58;;;9.41;;
68942;SDS011;60852;52.190;4.422;2023-11-21T12:13:11;9.15;;;8.97;;
68942;SDS011;60852;52.190;4.422;2023-11-21T12:15:39;9.53;;;9.22;;
68942;SDS011;60852;52.190;4.422;2023-11-21T12:18:06;8.76;;;8.60;;
68942;SDS011;60852;52.190;4.422;2023-11-21T12:20:32;8.95;;;8.82;;
68942;SDS011;60852;52.190;4.422;2023-11-21T12:23:03;9.33;;;9.10;;
68942;SDS011;60852;52.190;4.422;2023-11-21T12:25:30;9.89;;;9.76;;
68942;SDS011;60852;52.190;4.422;2023-11-21T12:27:58;9.69;;;9.37;;
68942;SDS011;60852;52.190;4.422;2023-11-21T12:30:25;9.88;;;9.53;;
68942;SDS011;60852;52.190;4.422;2023-11-21T12:33:01;9.62;;;9.39;;
68942;SDS011;60852;52.190;4.422;2023-11-21T12:35:28;8.70;;;8.56;;
68942;SDS011;60852;52.190;4.422;2023-11-21T12:37:56;9.36;;;9.28;;
68942;SDS011;60852;52.190;4.422;2023-11-21T12:40:24;8.87;;;8.87;;
68942;SDS011;60852;52.190;4.422;2023-11-21T12:42:54;8.73;;;8.72;;
68942;SDS011;60852;52.190;4.422;2023-11-21T12:45:23;8.35;;;8.34;;
68942;SDS011;60852;52.190;4.422;2023-11-21T12:47:56;8.52;;;8.46;;
68942;SDS011;60852;52.190;4.422;2023-11-21T12:50:25;7.75;;;7.65;;
68942;SDS011;60852;52.190;4.422;2023-11-21T12:53:03;7.50;;;7.47;;
68942;SDS011;60852;52.190;4.422;2023-11-21T12:55:31;7.21;;;7.21;;
68942;SDS011;60852;52.190;4.422;2023-11-21T12:57:59;7.18;;;7.15;;
68942;SDS011;60852;52.190;4.422;2023-11-21T13:00:37;7.07;;;7.03;;
68942;SDS011;60852;52.190;4.422;2023-11-21T13:03:14;6.92;;;6.85;;
68942;SDS011;60852;52.190;4.422;2023-11-21T13:05:43;6.46;;;6.46;;
68942;SDS011;60852;52.190;4.422;2023-11-21T13:08:11;6.37;;;6.37;;
68942;SDS011;60852;52.190;4.422;2023-11-21T13:10:43;5.76;;;5.74;;
68942;SDS011;60852;52.190;4.422;2023-11-21T13:13:13;5.18;;;5.18;;
68942;SDS011;60852;52.190;4.422;2023-11-21T13:18:29;5.73;;;5.73;;
68942;SDS011;60852;52.190;4.422;2023-11-21T13:20:57;5.85;;;5.85;;
68942;SDS011;60852;52.190;4.422;2023-11-21T13:23:24;6.02;;;5.91;;
68942;SDS011;60852;52.190;4.422;2023-11-21T13:25:51;6.54;;;6.34;;
68942;SDS011;60852;52.190;4.422;2023-11-21T13:28:18;7.08;;;6.89;;
68942;SDS011;60852;52.190;4.422;2023-11-21T13:30:46;6.91;;;6.78;;
68942;SDS011;60852;52.190;4.422;2023-11-21T13:33:13;7.08;;;6.86;;
68942;SDS011;60852;52.190;4.422;2023-11-21T13:35:42;7.23;;;7.02;;
68942;SDS011;60852;52.190;4.422;2023-11-21T13:38:13;7.49;;;7.28;;
68942;SDS011;60852;52.190;4.422;2023-11-21T13:40:42;7.29;;;7.12;;
68942;SDS011;60852;52.190;4.422;2023-11-21T13:43:15;7.23;;;7.12;;
68942;SDS011;60852;52.190;4.422;2023-11-21T13:45:44;6.96;;;6.84;;
68942;SDS011;60852;52.190;4.422;2023-11-21T13:48:11;6.81;;;6.79;;
68942;SDS011;60852;52.190;4.422;2023-11-21T13:50:44;7.30;;;7.15;;
68942;SDS011;60852;52.190;4.422;2023-11-21T13:53:20;7.88;;;7.84;;
68942;SDS011;60852;52.190;4.422;2023-11-21T13:55:49;7.07;;;6.91;;
68942;SDS011;60852;52.190;4.422;2023-11-21T13:58:16;7.39;;;7.19;;
68942;SDS011;60852;52.190;4.422;2023-11-21T14:00:48;7.27;;;7.07;;
68942;SDS011;60852;52.190;4.422;2023-11-21T14:03:24;7.55;;;7.28;;
68942;SDS011;60852;52.190;4.422;2023-11-21T14:05:57;7.54;;;7.39;;
68942;SDS011;60852;52.190;4.422;2023-11-21T14:08:25;8.22;;;8.07;;
68942;SDS011;60852;52.190;4.422;2023-11-21T14:10:57;8.70;;;8.43;;
68942;SDS011;60852;52.190;4.422;2023-11-21T14:13:24;9.57;;;9.06;;
68942;SDS011;60852;52.190;4.422;2023-11-21T14:15:51;10.13;;;9.58;;
68942;SDS011;60852;52.190;4.422;2023-11-21T14:18:23;10.13;;;9.74;;
68942;SDS011;60852;52.190;4.422;2023-11-21T14:20:56;10.34;;;10.11;;
68942;SDS011;60852;52.190;4.422;2023-11-21T14:23:21;11.47;;;11.03;;
68942;SDS011;60852;52.190;4.422;2023-11-21T14:25:48;10.39;;;10.04;;
68942;SDS011;60852;52.190;4.422;2023-11-21T14:28:15;10.22;;;10.02;;
68942;SDS011;60852;52.190;4.422;2023-11-21T14:30:41;11.27;;;10.98;;
68942;SDS011;60852;52.190;4.422;2023-11-21T14:33:07;12.25;;;11.90;;
68942;SDS011;60852;52.190;4.422;2023-11-21T14:35:35;13.70;;;13.21;;
68942;SDS011;60852;52.190;4.422;2023-11-21T14:38:00;13.84;;;13.31;;
68942;SDS011;60852;52.190;4.422;2023-11-21T14:40:27;13.06;;;12.57;;
68942;SDS011;60852;52.190;4.422;2023-11-21T14:43:01;12.73;;;12.29;;
68942;SDS011;60852;52.190;4.422;2023-11-21T14:45:33;13.76;;;13.26;;
68942;SDS011;60852;52.190;4.422;2023-11-21T14:48:02;13.68;;;13.15;;
68942;SDS011;60852;52.190;4.422;2023-11-21T14:50:34;14.01;;;13.70;;
68942;SDS011;60852;52.190;4.422;2023-11-21T14:53:09;13.37;;;12.90;;
68942;SDS011;60852;52.190;4.422;2023-11-21T14:55:36;13.54;;;12.90;;
68942;SDS011;60852;52.190;4.422;2023-11-21T14:58:04;13.31;;;12.68;;
68942;SDS011;60852;52.190;4.422;2023-11-21T15:00:30;12.83;;;12.47;;
68942;SDS011;60852;52.190;4.422;2023-11-21T15:03:09;13.90;;;13.22;;
68942;SDS011;60852;52.190;4.422;2023-11-21T15:05:35;13.49;;;12.89;;